sensor_id;sensor_type;location;lat;lon;timestamp;pressure;altitude;pressure_sealevel;temperature;humidity
78685;BME280;68002;52.310;6.990;2023-03-23T00:00:40;99901.81;;;11.02;87.37
78685;BME280;68002;52.310;6.990;2023-03-23T00:03:05;99900.13;;;11.01;87.78
78685;BME280;68002;52.310;6.990;2023-03-23T00:05:30;99898.13;;;11.03;87.18
78685;BME280;68002;52.310;6.990;2023-03-23T00:07:56;99885.09;;;11.00;87.17
78685;BME280;68002;52.310;6.990;2023-03-23T00:10:21;99896.47;;;11.02;87.10
78685;BME280;68002;52.310;6.990;2023-03-23T00:12:46;99895.78;;;11.00;87.22
78685;BME280;68002;52.310;6.990;2023-03-23T00:15:11;99893.09;;;11.08;86.92
78685;BME280;68002;52.310;6.990;2023-03-23T00:17:36;99901.66;;;11.03;87.36
78685;BME280;68002;52.310;6.990;2023-03-23T00:20:02;99893.78;;;11.02;87.14
78685;BME280;68002;52.310;6.990;2023-03-23T00:22:28;99900.50;;;11.14;86.31
78685;BME280;68002;52.310;6.990;2023-03-23T00:24:53;99890.63;;;11.14;85.93
78685;BME280;68002;52.310;6.990;2023-03-23T00:27:19;99891.78;;;11.12;86.70
78685;BME280;68002;52.310;6.990;2023-03-23T00:29:45;99890.44;;;11.08;86.24
78685;BME280;68002;52.310;6.990;2023-03-23T00:32:12;99889.44;;;11.09;86.38
78685;BME280;68002;52.310;6.990;2023-03-23T00:34:39;99882.09;;;11.11;85.89
78685;BME280;68002;52.310;6.990;2023-03-23T00:37:04;99888.13;;;11.13;85.83
78685;BME280;68002;52.310;6.990;2023-03-23T00:39:30;99879.75;;;11.16;85.66
78685;BME280;68002;52.310;6.990;2023-03-23T00:41:55;99883.94;;;11.10;85.74
78685;BME280;68002;52.310;6.990;2023-03-23T00:44:20;99870.19;;;11.13;85.48
78685;BME280;68002;52.310;6.990;2023-03-23T00:46:46;99891.94;;;11.10;85.69
78685;BME280;68002;52.310;6.990;2023-03-23T00:49:13;99881.59;;;11.15;85.38
78685;BME280;68002;52.310;6.990;2023-03-23T00:51:39;99885.78;;;11.18;85.11
78685;BME280;68002;52.310;6.990;2023-03-23T00:54:05;99880.09;;;11.13;85.55
78685;BME280;68002;52.310;6.990;2023-03-23T00:56:30;99883.44;;;11.15;85.41
78685;BME280;68002;52.310;6.990;2023-03-23T00:58:55;99873.72;;;11.14;84.94
78685;BME280;68002;52.310;6.990;2023-03-23T01:01:20;99873.56;;;11.15;84.94
78685;BME280;68002;52.310;6.990;2023-03-23T01:03:46;99878.59;;;11.19;84.90
78685;BME280;68002;52.310;6.990;2023-03-23T01:06:11;99878.22;;;11.13;84.79
78685;BME280;68002;52.310;6.990;2023-03-23T01:08:36;99886.63;;;11.19;84.42
78685;BME280;68002;52.310;6.990;2023-03-23T01:11:05;99884.09;;;11.25;83.83
78685;BME280;68002;52.310;6.990;2023-03-23T01:13:31;99875.22;;;11.25;84.01
78685;BME280;68002;52.310;6.990;2023-03-23T01:15:56;99868.03;;;11.25;84.25
78685;BME280;68002;52.310;6.990;2023-03-23T01:18:21;99863.19;;;11.21;84.33
78685;BME280;68002;52.310;6.990;2023-03-23T01:20:46;99865.53;;;11.24;84.55
78685;BME280;68002;52.310;6.990;2023-03-23T01:23:12;99858.19;;;11.26;83.75
78685;BME280;68002;52.310;6.990;2023-03-23T01:25:37;99856.50;;;11.25;84.12
78685;BME280;68002;52.310;6.990;2023-03-23T01:28:02;99848.63;;;11.23;84.33
78685;BME280;68002;52.310;6.990;2023-03-23T01:30:28;99842.94;;;11.34;83.26
78685;BME280;68002;52.310;6.990;2023-03-23T01:32:54;99844.78;;;11.34;83.65
78685;BME280;68002;52.310;6.990;2023-03-23T01:35:20;99835.75;;;11.35;83.77
78685;BME280;68002;52.310;6.990;2023-03-23T01:37:45;99828.72;;;11.34;83.78
78685;BME280;68002;52.310;6.990;2023-03-23T01:40:11;99825.72;;;11.37;83.11
78685;BME280;68002;52.310;6.990;2023-03-23T01:42:37;99809.47;;;11.30;84.03
78685;BME280;68002;52.310;6.990;2023-03-23T01:45:23;99820.34;;;11.37;83.34
78685;BME280;68002;52.310;6.990;2023-03-23T01:48:07;99824.88;;;11.44;82.67
78685;BME280;68002;52.310;6.990;2023-03-23T01:51:02;99830.22;;;11.44;82.81
78685;BME280;68002;52.310;6.990;2023-03-23T01:53:34;99825.84;;;11.43;82.73
78685;BME280;68002;52.310;6.990;2023-03-23T01:56:01;99829.72;;;11.41;82.91
78685;BME280;68002;52.310;6.990;2023-03-23T01:58:30;99837.25;;;11.45;82.62
78685;BME280;68002;52.310;6.990;2023-03-23T02:00:58;99828.72;;;11.50;82.29
78685;BME280;68002;52.310;6.990;2023-03-23T02:03:27;99799.75;;;11.45;82.48
78685;BME280;68002;52.310;6.990;2023-03-23T02:05:53;99807.59;;;11.47;82.08
78685;BME280;68002;52.310;6.990;2023-03-23T02:08:19;99793.72;;;11.43;82.70
78685;BME280;68002;52.310;6.990;2023-03-23T02:10:44;99759.75;;;11.36;83.04
78685;BME280;68002;52.310;6.990;2023-03-23T02:13:11;99755.25;;;11.28;83.08
78685;BME280;68002;52.310;6.990;2023-03-23T02:16:03;99762.63;;;11.34;83.57
78685;BME280;68002;52.310;6.990;2023-03-23T02:21:13;99763.28;;;11.36;83.39
78685;BME280;68002;52.310;6.990;2023-03-23T02:26:20;99758.28;;;11.33;83.68
78685;BME280;68002;52.310;6.990;2023-03-23T02:32:04;99758.09;;;11.27;83.63
78685;BME280;68002;52.310;6.990;2023-03-23T02:34:37;99758.28;;;11.33;83.02
78685;BME280;68002;52.310;6.990;2023-03-23T02:37:24;99760.28;;;11.31;83.07
78685;BME280;68002;52.310;6.990;2023-03-23T02:39:57;99756.94;;;11.37;82.42
78685;BME280;68002;52.310;6.990;2023-03-23T02:42:28;99744.72;;;11.35;82.80
78685;BME280;68002;52.310;6.990;2023-03-23T02:44:58;99740.22;;;11.27;83.16
78685;BME280;68002;52.310;6.990;2023-03-23T02:47:29;99745.91;;;11.24;83.27
78685;BME280;68002;52.310;6.990;2023-03-23T02:49:55;99734.53;;;11.22;83.50
78685;BME280;68002;52.310;6.990;2023-03-23T02:52:27;99721.66;;;11.26;82.97
78685;BME280;68002;52.310;6.990;2023-03-23T02:54:55;99734.53;;;11.22;83.22
78685;BME280;68002;52.310;6.990;2023-03-23T02:57:23;99743.75;;;11.28;82.64
78685;BME280;68002;52.310;6.990;2023-03-23T02:59:49;99744.53;;;11.28;82.91
78685;BME280;68002;52.310;6.990;2023-03-23T03:02:18;99746.91;;;11.31;82.43
78685;BME280;68002;52.310;6.990;2023-03-23T03:04:53;99751.94;;;11.26;82.94
78685;BME280;68002;52.310;6.990;2023-03-23T03:07:38;99736.19;;;11.23;83.00
78685;BME280;68002;52.310;6.990;2023-03-23T03:10:16;99746.25;;;11.21;83.16
78685;BME280;68002;52.310;6.990;2023-03-23T03:12:46;99746.91;;;11.23;83.11
78685;BME280;68002;52.310;6.990;2023-03-23T03:17:51;99741.19;;;11.34;82.96
78685;BME280;68002;52.310;6.990;2023-03-23T03:20:19;99748.91;;;11.37;82.64
78685;BME280;68002;52.310;6.990;2023-03-23T03:22:46;99732.19;;;11.35;82.69
78685;BME280;68002;52.310;6.990;2023-03-23T03:25:12;99728.13;;;11.39;82.86
78685;BME280;68002;52.310;6.990;2023-03-23T03:27:40;99726.66;;;11.37;82.96
78685;BME280;68002;52.310;6.990;2023-03-23T03:30:10;99744.88;;;11.41;82.74
78685;BME280;68002;52.310;6.990;2023-03-23T03:32:48;99734.16;;;11.41;82.75
78685;BME280;68002;52.310;6.990;2023-03-23T03:35:15;99739.19;;;11.44;82.15
78685;BME280;68002;52.310;6.990;2023-03-23T03:37:40;99740.69;;;11.39;82.48
78685;BME280;68002;52.310;6.990;2023-03-23T03:40:08;99752.56;;;11.44;82.25
78685;BME280;68002;52.310;6.990;2023-03-23T03:42:34;99756.06;;;11.45;82.54
78685;BME280;68002;52.310;6.990;2023-03-23T03:44:59;99757.56;;;11.47;82.27
78685;BME280;68002;52.310;6.990;2023-03-23T03:47:24;99750.19;;;11.57;81.71
78685;BME280;68002;52.310;6.990;2023-03-23T03:49:50;99749.84;;;11.60;81.59
78685;BME280;68002;52.310;6.990;2023-03-23T03:52:15;99754.84;;;11.63;81.60
78685;BME280;68002;52.310;6.990;2023-03-23T03:54:40;99748.50;;;11.56;81.11
78685;BME280;68002;52.310;6.990;2023-03-23T03:57:05;99743.47;;;11.69;80.92
78685;BME280;68002;52.310;6.990;2023-03-23T03:59:30;99750.34;;;11.72;80.97
78685;BME280;68002;52.310;6.990;2023-03-23T04:01:56;99745.97;;;11.71;80.84
78685;BME280;68002;52.310;6.990;2023-03-23T04:04:21;99747.16;;;11.68;81.11
78685;BME280;68002;52.310;6.990;2023-03-23T04:06:46;99752.03;;;11.65;81.19
78685;BME280;68002;52.310;6.990;2023-03-23T04:09:11;99751.34;;;11.71;80.78
78685;BME280;68002;52.310;6.990;2023-03-23T04:11:37;99738.63;;;11.73;80.81
78685;BME280;68002;52.310;6.990;2023-03-23T04:14:02;99736.44;;;11.68;81.29
78685;BME280;68002;52.310;6.990;2023-03-23T04:16:27;99735.44;;;11.69;81.10
78685;BME280;68002;52.310;6.990;2023-03-23T04:18:52;99732.22;;;11.74;80.58
78685;BME280;68002;52.310;6.990;2023-03-23T04:21:18;99732.41;;;11.72;80.69
78685;BME280;68002;52.310;6.990;2023-03-23T04:23:43;99730.41;;;11.74;80.01
78685;BME280;68002;52.310;6.990;2023-03-23T04:26:08;99724.72;;;11.69;80.64
78685;BME280;68002;52.310;6.990;2023-03-23T04:28:34;99730.06;;;11.77;79.91
78685;BME280;68002;52.310;6.990;2023-03-23T04:31:00;99725.00;;;11.82;80.47
78685;BME280;68002;52.310;6.990;2023-03-23T04:33:27;99730.69;;;11.87;80.09
78685;BME280;68002;52.310;6.990;2023-03-23T04:35:54;99722.34;;;11.82;80.88
78685;BME280;68002;52.310;6.990;2023-03-23T04:38:21;99717.97;;;11.81;81.07
78685;BME280;68002;52.310;6.990;2023-03-23T04:40:47;99722.84;;;11.78;81.29
78685;BME280;68002;52.310;6.990;2023-03-23T04:43:13;99731.25;;;11.75;81.16
78685;BME280;68002;52.310;6.990;2023-03-23T04:45:38;99727.72;;;11.74;81.51
78685;BME280;68002;52.310;6.990;2023-03-23T04:48:04;99733.75;;;11.76;81.53
78685;BME280;68002;52.310;6.990;2023-03-23T04:50:31;99721.69;;;11.72;81.06
78685;BME280;68002;52.310;6.990;2023-03-23T04:52:57;99732.78;;;11.69;81.36
78685;BME280;68002;52.310;6.990;2023-03-23T04:55:23;99709.03;;;11.66;81.69
78685;BME280;68002;52.310;6.990;2023-03-23T04:57:49;99726.06;;;11.73;81.46
78685;BME280;68002;52.310;6.990;2023-03-23T05:00:14;99720.53;;;11.75;80.36
78685;BME280;68002;52.310;6.990;2023-03-23T05:02:40;99716.66;;;11.77;80.29
78685;BME280;68002;52.310;6.990;2023-03-23T05:05:06;99711.63;;;11.82;79.85
78685;BME280;68002;52.310;6.990;2023-03-23T05:07:32;99713.44;;;11.90;78.31
78685;BME280;68002;52.310;6.990;2023-03-23T05:09:57;99715.44;;;11.88;78.56
78685;BME280;68002;52.310;6.990;2023-03-23T05:12:22;99718.53;;;11.99;77.83
78685;BME280;68002;52.310;6.990;2023-03-23T05:14:47;99721.88;;;12.01;77.57
78685;BME280;68002;52.310;6.990;2023-03-23T05:17:14;99732.78;;;12.00;78.24
78685;BME280;68002;52.310;6.990;2023-03-23T05:19:39;99726.78;;;11.98;78.33
78685;BME280;68002;52.310;6.990;2023-03-23T05:22:04;99737.97;;;12.01;77.94
78685;BME280;68002;52.310;6.990;2023-03-23T05:24:30;99729.28;;;11.99;78.40
78685;BME280;68002;52.310;6.990;2023-03-23T05:26:55;99730.59;;;12.03;77.56
78685;BME280;68002;52.310;6.990;2023-03-23T05:29:21;99731.81;;;12.01;78.49
78685;BME280;68002;52.310;6.990;2023-03-23T05:31:46;99726.56;;;12.07;77.92
78685;BME280;68002;52.310;6.990;2023-03-23T05:34:11;99741.09;;;12.13;78.46
78685;BME280;68002;52.310;6.990;2023-03-23T05:36:36;99726.56;;;12.07;78.13
78685;BME280;68002;52.310;6.990;2023-03-23T05:39:02;99728.25;;;12.08;78.44
78685;BME280;68002;52.310;6.990;2023-03-23T05:41:27;99738.78;;;12.10;79.29
78685;BME280;68002;52.310;6.990;2023-03-23T05:43:52;99732.94;;;12.06;79.06
78685;BME280;68002;52.310;6.990;2023-03-23T05:46:17;99734.59;;;12.07;78.82
78685;BME280;68002;52.310;6.990;2023-03-23T05:48:42;99721.09;;;12.01;78.71
78685;BME280;68002;52.310;6.990;2023-03-23T05:51:08;99723.41;;;12.04;79.05
78685;BME280;68002;52.310;6.990;2023-03-23T05:53:33;99725.91;;;12.05;78.23
78685;BME280;68002;52.310;6.990;2023-03-23T05:55:59;99729.78;;;12.03;79.01
78685;BME280;68002;52.310;6.990;2023-03-23T05:58:25;99741.69;;;12.00;79.26
78685;BME280;68002;52.310;6.990;2023-03-23T06:00:50;99729.81;;;11.95;78.73
78685;BME280;68002;52.310;6.990;2023-03-23T06:03:15;99744.66;;;12.05;78.38
78685;BME280;68002;52.310;6.990;2023-03-23T06:05:44;99743.59;;;12.14;77.92
78685;BME280;68002;52.310;6.990;2023-03-23T06:08:10;99756.34;;;12.12;78.03
78685;BME280;68002;52.310;6.990;2023-03-23T06:10:35;99759.38;;;12.09;77.85
78685;BME280;68002;52.310;6.990;2023-03-23T06:13:00;99751.53;;;12.08;77.42
78685;BME280;68002;52.310;6.990;2023-03-23T06:15:26;99755.88;;;12.09;77.65
78685;BME280;68002;52.310;6.990;2023-03-23T06:17:51;99751.72;;;12.06;78.10
78685;BME280;68002;52.310;6.990;2023-03-23T06:20:16;99750.94;;;12.21;77.17
78685;BME280;68002;52.310;6.990;2023-03-23T06:22:41;99755.47;;;12.20;76.75
78685;BME280;68002;52.310;6.990;2023-03-23T06:25:07;99758.69;;;12.16;77.34
78685;BME280;68002;52.310;6.990;2023-03-23T06:27:33;99766.75;;;12.16;77.48
78685;BME280;68002;52.310;6.990;2023-03-23T06:29:58;99763.69;;;12.19;76.24
78685;BME280;68002;52.310;6.990;2023-03-23T06:32:25;99771.84;;;12.25;76.92
78685;BME280;68002;52.310;6.990;2023-03-23T06:34:53;99766.69;;;12.24;76.50
78685;BME280;68002;52.310;6.990;2023-03-23T06:37:18;99765.69;;;12.25;76.34
78685;BME280;68002;52.310;6.990;2023-03-23T06:39:43;99775.06;;;12.29;76.18
78685;BME280;68002;52.310;6.990;2023-03-23T06:42:10;99779.28;;;12.23;76.46
78685;BME280;68002;52.310;6.990;2023-03-23T06:44:35;99774.00;;;12.38;75.60
78685;BME280;68002;52.310;6.990;2023-03-23T06:47:00;99772.00;;;12.32;75.38
78685;BME280;68002;52.310;6.990;2023-03-23T06:49:26;99776.19;;;12.34;75.50
78685;BME280;68002;52.310;6.990;2023-03-23T06:51:51;99769.13;;;12.41;74.86
78685;BME280;68002;52.310;6.990;2023-03-23T06:54:16;99770.59;;;12.44;75.19
78685;BME280;68002;52.310;6.990;2023-03-23T06:56:41;99770.38;;;12.53;74.93
78685;BME280;68002;52.310;6.990;2023-03-23T06:59:06;99763.69;;;12.49;74.71
78685;BME280;68002;52.310;6.990;2023-03-23T07:01:32;99777.34;;;12.62;74.98
78685;BME280;68002;52.310;6.990;2023-03-23T07:03:57;99778.56;;;12.60;74.84
78685;BME280;68002;52.310;6.990;2023-03-23T07:06:23;99786.34;;;12.69;74.12
78685;BME280;68002;52.310;6.990;2023-03-23T07:08:49;99786.94;;;12.57;74.36
78685;BME280;68002;52.310;6.990;2023-03-23T07:11:14;99798.03;;;12.54;75.15
78685;BME280;68002;52.310;6.990;2023-03-23T07:13:39;99804.06;;;12.56;74.34
78685;BME280;68002;52.310;6.990;2023-03-23T07:16:05;99797.47;;;12.58;74.81
78685;BME280;68002;52.310;6.990;2023-03-23T07:18:30;99806.25;;;12.52;75.37
78685;BME280;68002;52.310;6.990;2023-03-23T07:20:55;99794.69;;;12.52;75.03
78685;BME280;68002;52.310;6.990;2023-03-23T07:23:21;99800.53;;;12.55;75.70
78685;BME280;68002;52.310;6.990;2023-03-23T07:25:46;99794.97;;;12.57;75.52
78685;BME280;68002;52.310;6.990;2023-03-23T07:28:12;99811.22;;;12.63;74.66
78685;BME280;68002;52.310;6.990;2023-03-23T07:30:37;99806.84;;;12.62;74.10
78685;BME280;68002;52.310;6.990;2023-03-23T07:33:05;99825.81;;;12.61;75.10
78685;BME280;68002;52.310;6.990;2023-03-23T07:35:30;99804.72;;;12.58;74.41
78685;BME280;68002;52.310;6.990;2023-03-23T07:37:55;99813.28;;;12.53;74.90
78685;BME280;68002;52.310;6.990;2023-03-23T07:40:21;99808.63;;;12.47;75.64
78685;BME280;68002;52.310;6.990;2023-03-23T07:42:52;99819.53;;;12.46;75.23
78685;BME280;68002;52.310;6.990;2023-03-23T07:45:17;99782.38;;;12.35;75.52
78685;BME280;68002;52.310;6.990;2023-03-23T07:47:42;99806.22;;;12.30;76.91
78685;BME280;68002;52.310;6.990;2023-03-23T07:50:08;99814.44;;;12.28;76.55
78685;BME280;68002;52.310;6.990;2023-03-23T07:52:34;99806.41;;;12.20;77.50
78685;BME280;68002;52.310;6.990;2023-03-23T07:55:01;99815.28;;;12.29;76.26
78685;BME280;68002;52.310;6.990;2023-03-23T07:57:26;99798.81;;;12.32;76.39
78685;BME280;68002;52.310;6.990;2023-03-23T07:59:51;99834.97;;;12.44;75.73
78685;BME280;68002;52.310;6.990;2023-03-23T08:02:17;99830.47;;;12.36;75.99
78685;BME280;68002;52.310;6.990;2023-03-23T08:04:42;99837.34;;;12.39;75.80
78685;BME280;68002;52.310;6.990;2023-03-23T08:07:07;99836.16;;;12.41;75.50
78685;BME280;68002;52.310;6.990;2023-03-23T08:09:32;99845.19;;;12.40;75.31
78685;BME280;68002;52.310;6.990;2023-03-23T08:11:58;99843.16;;;12.50;75.88
78685;BME280;68002;52.310;6.990;2023-03-23T08:14:23;99839.75;;;12.56;75.42
78685;BME280;68002;52.310;6.990;2023-03-23T08:16:49;99795.66;;;12.59;75.26
78685;BME280;68002;52.310;6.990;2023-03-23T08:19:14;99833.56;;;12.56;74.48
78685;BME280;68002;52.310;6.990;2023-03-23T08:21:39;99844.22;;;12.64;74.72
78685;BME280;68002;52.310;6.990;2023-03-23T08:24:05;99839.13;;;12.77;72.28
78685;BME280;68002;52.310;6.990;2023-03-23T08:26:30;99840.16;;;12.76;73.49
78685;BME280;68002;52.310;6.990;2023-03-23T08:28:55;99840.50;;;12.73;72.73
78685;BME280;68002;52.310;6.990;2023-03-23T08:31:21;99849.38;;;12.73;72.67
78685;BME280;68002;52.310;6.990;2023-03-23T08:33:46;99837.81;;;12.73;72.54
78685;BME280;68002;52.310;6.990;2023-03-23T08:36:11;99849.56;;;12.72;73.66
78685;BME280;68002;52.310;6.990;2023-03-23T08:38:36;99851.28;;;12.65;73.19
78685;BME280;68002;52.310;6.990;2023-03-23T08:41:03;99857.31;;;12.67;72.41
78685;BME280;68002;52.310;6.990;2023-03-23T08:43:30;99859.66;;;12.62;72.74
78685;BME280;68002;52.310;6.990;2023-03-23T08:45:55;99873.75;;;12.64;72.65
78685;BME280;68002;52.310;6.990;2023-03-23T08:48:21;99879.00;;;12.57;71.09
78685;BME280;68002;52.310;6.990;2023-03-23T08:50:46;99883.13;;;12.68;69.53
78685;BME280;68002;52.310;6.990;2023-03-23T08:53:11;99879.78;;;12.66;69.56
78685;BME280;68002;52.310;6.990;2023-03-23T08:55:37;99888.19;;;12.63;68.90
78685;BME280;68002;52.310;6.990;2023-03-23T08:58:02;99896.59;;;12.60;69.91
78685;BME280;68002;52.310;6.990;2023-03-23T09:00:27;99888.84;;;12.65;70.03
78685;BME280;68002;52.310;6.990;2023-03-23T09:02:53;99879.09;;;12.72;69.76
78685;BME280;68002;52.310;6.990;2023-03-23T09:05:21;99883.56;;;12.79;69.61
78685;BME280;68002;52.310;6.990;2023-03-23T09:07:49;99900.06;;;12.99;68.92
78685;BME280;68002;52.310;6.990;2023-03-23T09:10:16;99905.75;;;13.04;68.63
78685;BME280;68002;52.310;6.990;2023-03-23T09:12:42;99898.41;;;12.98;69.50
78685;BME280;68002;52.310;6.990;2023-03-23T09:15:10;99919.34;;;13.02;69.24
78685;BME280;68002;52.310;6.990;2023-03-23T09:17:40;99912.00;;;12.96;69.38
78685;BME280;68002;52.310;6.990;2023-03-23T09:20:06;99926.63;;;12.86;70.44
78685;BME280;68002;52.310;6.990;2023-03-23T09:22:32;99919.81;;;12.75;70.02
78685;BME280;68002;52.310;6.990;2023-03-23T09:24:57;99916.09;;;12.76;70.05
78685;BME280;68002;52.310;6.990;2023-03-23T09:27:22;99926.41;;;12.65;71.23
78685;BME280;68002;52.310;6.990;2023-03-23T09:29:48;99902.47;;;12.55;71.54
78685;BME280;68002;52.310;6.990;2023-03-23T09:32:13;99921.13;;;12.49;72.55
78685;BME280;68002;52.310;6.990;2023-03-23T09:34:38;99931.50;;;12.52;72.44
78685;BME280;68002;52.310;6.990;2023-03-23T09:37:04;99925.16;;;12.37;72.69
78685;BME280;68002;52.310;6.990;2023-03-23T09:39:29;99940.78;;;12.33;73.53
78685;BME280;68002;52.310;6.990;2023-03-23T09:45:02;99957.66;;;12.42;73.86
78685;BME280;68002;52.310;6.990;2023-03-23T09:50:35;99957.19;;;12.38;73.18
78685;BME280;68002;52.310;6.990;2023-03-23T09:53:21;99962.41;;;12.40;73.56
78685;BME280;68002;52.310;6.990;2023-03-23T09:55:47;99970.75;;;12.45;73.43
78685;BME280;68002;52.310;6.990;2023-03-23T09:58:27;99959.34;;;12.43;73.31
78685;BME280;68002;52.310;6.990;2023-03-23T10:06:45;99959.78;;;12.62;72.68
78685;BME280;68002;52.310;6.990;2023-03-23T10:09:18;99956.91;;;12.72;73.01
78685;BME280;68002;52.310;6.990;2023-03-23T10:11:56;99952.13;;;12.82;71.39
78685;BME280;68002;52.310;6.990;2023-03-23T10:14:40;99948.94;;;12.86;71.87
78685;BME280;68002;52.310;6.990;2023-03-23T10:19:50;99967.53;;;12.96;72.44
78685;BME280;68002;52.310;6.990;2023-03-23T10:22:23;99956.44;;;12.99;72.17
78685;BME280;68002;52.310;6.990;2023-03-23T10:24:57;99965.09;;;13.17;71.29
78685;BME280;68002;52.310;6.990;2023-03-23T10:27:42;99977.16;;;13.21;70.64
78685;BME280;68002;52.310;6.990;2023-03-23T10:35:11;99951.84;;;13.61;69.29
78685;BME280;68002;52.310;6.990;2023-03-23T10:37:41;99972.41;;;14.13;68.62
78685;BME280;68002;52.310;6.990;2023-03-23T10:40:15;99969.00;;;14.49;66.38
78685;BME280;68002;52.310;6.990;2023-03-23T10:42:41;99958.22;;;14.92;67.15
78685;BME280;68002;52.310;6.990;2023-03-23T10:45:22;99963.22;;;15.31;63.54
78685;BME280;68002;52.310;6.990;2023-03-23T10:47:59;99963.50;;;15.51;61.91
78685;BME280;68002;52.310;6.990;2023-03-23T10:50:30;99963.78;;;15.62;60.32
78685;BME280;68002;52.310;6.990;2023-03-23T10:52:57;99965.66;;;15.83;61.01
78685;BME280;68002;52.310;6.990;2023-03-23T10:55:34;99970.94;;;16.19;57.38
78685;BME280;68002;52.310;6.990;2023-03-23T10:58:06;99966.91;;;16.36;57.25
78685;BME280;68002;52.310;6.990;2023-03-23T11:00:32;99970.16;;;16.52;56.92
78685;BME280;68002;52.310;6.990;2023-03-23T11:02:59;99977.13;;;16.13;55.99
78685;BME280;68002;52.310;6.990;2023-03-23T11:05:31;99974.34;;;15.78;57.01
78685;BME280;68002;52.310;6.990;2023-03-23T11:07:57;99969.53;;;15.53;58.03
78685;BME280;68002;52.310;6.990;2023-03-23T11:10:26;99973.19;;;15.87;57.12
78685;BME280;68002;52.310;6.990;2023-03-23T11:12:52;99971.03;;;16.04;56.91
78685;BME280;68002;52.310;6.990;2023-03-23T11:18:06;99975.56;;;15.76;57.18
78685;BME280;68002;52.310;6.990;2023-03-23T11:20:36;99979.31;;;16.02;57.16
78685;BME280;68002;52.310;6.990;2023-03-23T11:23:17;99968.53;;;15.60;57.17
78685;BME280;68002;52.310;6.990;2023-03-23T11:28:38;99992.09;;;15.16;59.48
78685;BME280;68002;52.310;6.990;2023-03-23T11:31:07;99990.88;;;15.19;59.35
78685;BME280;68002;52.310;6.990;2023-03-23T11:33:58;99993.59;;;15.04;59.87
78685;BME280;68002;52.310;6.990;2023-03-23T11:36:29;99983.13;;;15.66;59.39
78685;BME280;68002;52.310;6.990;2023-03-23T11:38:55;99991.53;;;15.77;57.38
78685;BME280;68002;52.310;6.990;2023-03-23T11:41:22;99970.34;;;15.95;57.38
78685;BME280;68002;52.310;6.990;2023-03-23T11:43:47;99993.75;;;15.67;56.02
78685;BME280;68002;52.310;6.990;2023-03-23T11:46:22;100010.78;;;15.53;57.62
78685;BME280;68002;52.310;6.990;2023-03-23T11:51:49;99994.88;;;15.79;57.81
78685;BME280;68002;52.310;6.990;2023-03-23T11:54:30;99985.69;;;15.74;57.12
78685;BME280;68002;52.310;6.990;2023-03-23T11:56:57;99978.13;;;15.63;57.57
78685;BME280;68002;52.310;6.990;2023-03-23T11:59:28;99981.00;;;15.61;56.19
78685;BME280;68002;52.310;6.990;2023-03-23T12:04:57;99974.31;;;15.99;55.12
78685;BME280;68002;52.310;6.990;2023-03-23T12:07:46;99980.16;;;16.52;55.65
78685;BME280;68002;52.310;6.990;2023-03-23T12:13:14;99983.34;;;17.09;51.96
78685;BME280;68002;52.310;6.990;2023-03-23T12:17:03;99974.66;;;16.45;52.36
78685;BME280;68002;52.310;6.990;2023-03-23T12:19:20;99981.13;;;15.95;53.89
78685;BME280;68002;52.310;6.990;2023-03-23T12:21:58;99999.28;;;15.66;55.21
78685;BME280;68002;52.310;6.990;2023-03-23T12:30:39;100000.00;;;15.03;54.93
78685;BME280;68002;52.310;6.990;2023-03-23T12:33:21;100010.66;;;15.11;54.16
78685;BME280;68002;52.310;6.990;2023-03-23T12:42:05;99995.38;;;16.38;54.85
78685;BME280;68002;52.310;6.990;2023-03-23T12:45:41;99985.44;;;16.73;53.80
78685;BME280;68002;52.310;6.990;2023-03-23T12:47:46;99967.75;;;16.64;52.69
78685;BME280;68002;52.310;6.990;2023-03-23T12:50:18;99975.19;;;16.55;53.30
78685;BME280;68002;52.310;6.990;2023-03-23T12:52:57;99980.53;;;16.49;53.06
78685;BME280;68002;52.310;6.990;2023-03-23T12:55:34;99974.91;;;16.23;52.72
78685;BME280;68002;52.310;6.990;2023-03-23T12:58:05;99983.66;;;15.76;51.23
78685;BME280;68002;52.310;6.990;2023-03-23T13:03:20;99980.44;;;15.45;51.77
78685;BME280;68002;52.310;6.990;2023-03-23T13:06:15;99971.00;;;15.55;51.66
78685;BME280;68002;52.310;6.990;2023-03-23T13:11:22;99967.84;;;15.52;51.79
78685;BME280;68002;52.310;6.990;2023-03-23T13:13:52;99961.75;;;15.43;51.72
78685;BME280;68002;52.310;6.990;2023-03-23T13:16:32;99982.91;;;15.10;53.18
78685;BME280;68002;52.310;6.990;2023-03-23T13:21:47;99968.53;;;14.89;54.89
78685;BME280;68002;52.310;6.990;2023-03-23T13:24:17;99953.81;;;14.70;56.01
78685;BME280;68002;52.310;6.990;2023-03-23T13:26:44;99990.47;;;14.57;58.42
78685;BME280;68002;52.310;6.990;2023-03-23T13:29:14;99993.13;;;14.05;63.75
78685;BME280;68002;52.310;6.990;2023-03-23T13:31:41;99972.31;;;13.17;69.07
78685;BME280;68002;52.310;6.990;2023-03-23T13:34:19;99976.34;;;12.74;70.74
78685;BME280;68002;52.310;6.990;2023-03-23T13:36:55;99975.22;;;12.60;70.68
78685;BME280;68002;52.310;6.990;2023-03-23T13:39:24;99981.50;;;12.83;71.42
78685;BME280;68002;52.310;6.990;2023-03-23T13:42:36;99980.31;;;13.25;71.11
78685;BME280;68002;52.310;6.990;2023-03-23T13:47:43;99978.72;;;13.83;69.17
78685;BME280;68002;52.310;6.990;2023-03-23T14:03:18;100037.31;;;12.96;72.02
78685;BME280;68002;52.310;6.990;2023-03-23T14:06:06;100021.41;;;12.40;70.62
78685;BME280;68002;52.310;6.990;2023-03-23T14:10:59;100023.75;;;11.70;73.90
78685;BME280;68002;52.310;6.990;2023-03-23T14:13:59;100027.38;;;11.45;74.95
78685;BME280;68002;52.310;6.990;2023-03-23T14:16:32;100030.22;;;11.44;76.66
78685;BME280;68002;52.310;6.990;2023-03-23T14:19:02;100030.88;;;11.38;77.69
78685;BME280;68002;52.310;6.990;2023-03-23T14:21:40;100041.25;;;11.33;76.59
78685;BME280;68002;52.310;6.990;2023-03-23T14:24:10;100043.91;;;11.33;76.66
78685;BME280;68002;52.310;6.990;2023-03-23T14:26:36;100025.66;;;11.20;78.41
78685;BME280;68002;52.310;6.990;2023-03-23T14:29:03;100027.97;;;11.23;78.21
78685;BME280;68002;52.310;6.990;2023-03-23T14:31:29;100022.31;;;11.26;78.63